sensor_id;sensor_type;location;lat;lon;timestamp;temperature;humidity
9448;DHT22;4762;48.128;11.376;2023-12-29T00:01:33;7.60;71.60
9448;DHT22;4762;48.128;11.376;2023-12-29T00:03:35;7.60;72.00
9448;DHT22;4762;48.128;11.376;2023-12-29T00:05:37;7.60;72.00
9448;DHT22;4762;48.128;11.376;2023-12-29T00:07:39;7.40;72.60
9448;DHT22;4762;48.128;11.376;2023-12-29T00:09:41;7.40;72.80
9448;DHT22;4762;48.128;11.376;2023-12-29T00:11:44;7.40;73.00
9448;DHT22;4762;48.128;11.376;2023-12-29T00:13:46;7.40;72.80
9448;DHT22;4762;48.128;11.376;2023-12-29T00:15:51;7.30;73.30
9448;DHT22;4762;48.128;11.376;2023-12-29T00:17:50;7.30;73.40
9448;DHT22;4762;48.128;11.376;2023-12-29T00:19:52;7.40;73.10
9448;DHT22;4762;48.128;11.376;2023-12-29T00:21:55;7.40;73.60
9448;DHT22;4762;48.128;11.376;2023-12-29T00:23:57;7.30;73.70
9448;DHT22;4762;48.128;11.376;2023-12-29T00:25:59;7.30;73.60
9448;DHT22;4762;48.128;11.376;2023-12-29T00:28:01;7.30;73.50
9448;DHT22;4762;48.128;11.376;2023-12-29T00:30:04;7.40;73.50
9448;DHT22;4762;48.128;11.376;2023-12-29T00:32:06;7.50;73.30
9448;DHT22;4762;48.128;11.376;2023-12-29T00:34:08;7.60;73.20
9448;DHT22;4762;48.128;11.376;2023-12-29T00:36:15;7.50;73.00
9448;DHT22;4762;48.128;11.376;2023-12-29T00:38:16;7.50;73.10
9448;DHT22;4762;48.128;11.376;2023-12-29T00:40:19;7.40;73.00
9448;DHT22;4762;48.128;11.376;2023-12-29T00:42:21;7.40;73.40
9448;DHT22;4762;48.128;11.376;2023-12-29T00:44:23;7.40;73.70
9448;DHT22;4762;48.128;11.376;2023-12-29T00:46:27;7.50;73.70
9448;DHT22;4762;48.128;11.376;2023-12-29T00:48:29;7.40;73.70
9448;DHT22;4762;48.128;11.376;2023-12-29T00:50:31;7.30;74.10
9448;DHT22;4762;48.128;11.376;2023-12-29T00:52:33;7.10;73.90
9448;DHT22;4762;48.128;11.376;2023-12-29T00:54:35;7.20;74.10
9448;DHT22;4762;48.128;11.376;2023-12-29T00:56:38;7.10;73.90
9448;DHT22;4762;48.128;11.376;2023-12-29T00:58:41;7.40;73.50
9448;DHT22;4762;48.128;11.376;2023-12-29T01:00:44;7.20;73.60
9448;DHT22;4762;48.128;11.376;2023-12-29T01:02:46;7.00;74.10
9448;DHT22;4762;48.128;11.376;2023-12-29T01:04:48;7.00;74.30
9448;DHT22;4762;48.128;11.376;2023-12-29T01:06:50;7.00;74.10
9448;DHT22;4762;48.128;11.376;2023-12-29T01:08:52;6.90;73.90
9448;DHT22;4762;48.128;11.376;2023-12-29T01:10:55;7.30;73.80
9448;DHT22;4762;48.128;11.376;2023-12-29T01:12:57;6.90;73.80
9448;DHT22;4762;48.128;11.376;2023-12-29T01:14:59;7.10;73.40
9448;DHT22;4762;48.128;11.376;2023-12-29T01:17:01;7.30;72.90
9448;DHT22;4762;48.128;11.376;2023-12-29T01:19:03;7.20;73.00
9448;DHT22;4762;48.128;11.376;2023-12-29T01:21:06;6.90;73.60
9448;DHT22;4762;48.128;11.376;2023-12-29T01:23:08;6.90;73.40
9448;DHT22;4762;48.128;11.376;2023-12-29T01:25:10;7.00;73.10
9448;DHT22;4762;48.128;11.376;2023-12-29T01:27:12;6.70;73.30
9448;DHT22;4762;48.128;11.376;2023-12-29T01:29:15;6.70;73.00
9448;DHT22;4762;48.128;11.376;2023-12-29T01:31:17;6.90;73.00
9448;DHT22;4762;48.128;11.376;2023-12-29T01:33:19;6.90;71.90
9448;DHT22;4762;48.128;11.376;2023-12-29T01:35:22;7.00;71.50
9448;DHT22;4762;48.128;11.376;2023-12-29T01:37:24;6.90;71.40
9448;DHT22;4762;48.128;11.376;2023-12-29T01:39:26;7.10;70.80
9448;DHT22;4762;48.128;11.376;2023-12-29T01:41:31;7.20;70.10
9448;DHT22;4762;48.128;11.376;2023-12-29T01:43:34;7.10;70.00
9448;DHT22;4762;48.128;11.376;2023-12-29T01:45:36;7.20;69.40
9448;DHT22;4762;48.128;11.376;2023-12-29T01:47:40;6.90;69.70
9448;DHT22;4762;48.128;11.376;2023-12-29T01:49:44;6.90;69.80
9448;DHT22;4762;48.128;11.376;2023-12-29T01:51:49;6.80;69.80
9448;DHT22;4762;48.128;11.376;2023-12-29T01:53:49;6.70;70.10
9448;DHT22;4762;48.128;11.376;2023-12-29T01:55:51;6.70;70.00
9448;DHT22;4762;48.128;11.376;2023-12-29T01:57:54;6.70;70.20
9448;DHT22;4762;48.128;11.376;2023-12-29T01:59:56;6.80;69.80
9448;DHT22;4762;48.128;11.376;2023-12-29T02:01:58;7.00;68.70
9448;DHT22;4762;48.128;11.376;2023-12-29T02:04:00;7.10;68.10
9448;DHT22;4762;48.128;11.376;2023-12-29T02:06:02;7.00;67.60
9448;DHT22;4762;48.128;11.376;2023-12-29T02:08:05;7.20;67.40
9448;DHT22;4762;48.128;11.376;2023-12-29T02:10:07;6.90;67.80
9448;DHT22;4762;48.128;11.376;2023-12-29T02:12:10;7.00;67.50
9448;DHT22;4762;48.128;11.376;2023-12-29T02:14:12;7.10;66.60
9448;DHT22;4762;48.128;11.376;2023-12-29T02:16:18;7.10;66.50
9448;DHT22;4762;48.128;11.376;2023-12-29T02:18:18;6.80;67.30
9448;DHT22;4762;48.128;11.376;2023-12-29T02:20:20;6.90;67.60
9448;DHT22;4762;48.128;11.376;2023-12-29T02:22:22;6.70;67.80
9448;DHT22;4762;48.128;11.376;2023-12-29T02:24:25;6.60;67.80
9448;DHT22;4762;48.128;11.376;2023-12-29T02:26:27;6.70;67.50
9448;DHT22;4762;48.128;11.376;2023-12-29T02:28:29;6.70;67.60
9448;DHT22;4762;48.128;11.376;2023-12-29T02:30:50;6.50;67.60
9448;DHT22;4762;48.128;11.376;2023-12-29T02:32:51;6.60;67.50
9448;DHT22;4762;48.128;11.376;2023-12-29T02:34:53;6.70;67.50
9448;DHT22;4762;48.128;11.376;2023-12-29T02:36:56;6.70;67.30
9448;DHT22;4762;48.128;11.376;2023-12-29T02:38:57;6.90;66.20
9448;DHT22;4762;48.128;11.376;2023-12-29T02:41:00;6.90;66.20
9448;DHT22;4762;48.128;11.376;2023-12-29T02:43:02;6.90;65.60
9448;DHT22;4762;48.128;11.376;2023-12-29T02:45:04;6.90;65.80
9448;DHT22;4762;48.128;11.376;2023-12-29T02:47:06;6.90;65.80
9448;DHT22;4762;48.128;11.376;2023-12-29T02:49:09;6.90;65.30
9448;DHT22;4762;48.128;11.376;2023-12-29T02:51:11;7.00;65.30
9448;DHT22;4762;48.128;11.376;2023-12-29T02:53:13;6.80;65.40
9448;DHT22;4762;48.128;11.376;2023-12-29T02:55:15;6.80;65.20
9448;DHT22;4762;48.128;11.376;2023-12-29T02:57:17;6.80;64.90
9448;DHT22;4762;48.128;11.376;2023-12-29T02:59:20;6.80;64.60
9448;DHT22;4762;48.128;11.376;2023-12-29T03:01:22;6.80;64.80
9448;DHT22;4762;48.128;11.376;2023-12-29T03:03:24;6.70;65.00
9448;DHT22;4762;48.128;11.376;2023-12-29T03:05:26;6.60;65.00
9448;DHT22;4762;48.128;11.376;2023-12-29T03:07:28;6.40;65.20
9448;DHT22;4762;48.128;11.376;2023-12-29T03:09:31;6.50;65.50
9448;DHT22;4762;48.128;11.376;2023-12-29T03:11:33;6.60;64.80
9448;DHT22;4762;48.128;11.376;2023-12-29T03:13:35;6.30;64.70
9448;DHT22;4762;48.128;11.376;2023-12-29T03:15:37;6.40;64.90
9448;DHT22;4762;48.128;11.376;2023-12-29T03:17:39;6.20;65.50
9448;DHT22;4762;48.128;11.376;2023-12-29T03:19:42;6.00;65.70
9448;DHT22;4762;48.128;11.376;2023-12-29T03:21:44;6.10;65.40
9448;DHT22;4762;48.128;11.376;2023-12-29T03:23:46;6.00;65.20
9448;DHT22;4762;48.128;11.376;2023-12-29T03:25:48;6.20;65.10
9448;DHT22;4762;48.128;11.376;2023-12-29T03:27:50;6.10;65.10
9448;DHT22;4762;48.128;11.376;2023-12-29T03:29:53;6.00;65.50
9448;DHT22;4762;48.128;11.376;2023-12-29T03:31:55;6.00;65.60
9448;DHT22;4762;48.128;11.376;2023-12-29T03:33:57;6.00;65.20
9448;DHT22;4762;48.128;11.376;2023-12-29T03:35:59;6.10;65.20
9448;DHT22;4762;48.128;11.376;2023-12-29T03:38:01;6.10;64.90
9448;DHT22;4762;48.128;11.376;2023-12-29T03:40:04;5.90;64.90
9448;DHT22;4762;48.128;11.376;2023-12-29T03:42:06;6.20;64.30
9448;DHT22;4762;48.128;11.376;2023-12-29T03:44:09;6.00;63.70
9448;DHT22;4762;48.128;11.376;2023-12-29T03:46:17;6.30;63.20
9448;DHT22;4762;48.128;11.376;2023-12-29T03:48:24;6.60;61.30
9448;DHT22;4762;48.128;11.376;2023-12-29T03:50:26;6.90;60.40
9448;DHT22;4762;48.128;11.376;2023-12-29T03:52:28;7.20;59.50
9448;DHT22;4762;48.128;11.376;2023-12-29T03:54:30;7.40;58.90
9448;DHT22;4762;48.128;11.376;2023-12-29T03:56:33;7.50;58.50
9448;DHT22;4762;48.128;11.376;2023-12-29T03:58:35;7.40;58.40
9448;DHT22;4762;48.128;11.376;2023-12-29T04:00:37;7.40;58.30
9448;DHT22;4762;48.128;11.376;2023-12-29T04:02:39;7.50;58.30
9448;DHT22;4762;48.128;11.376;2023-12-29T04:04:41;7.60;58.00
9448;DHT22;4762;48.128;11.376;2023-12-29T04:06:44;7.60;58.20
9448;DHT22;4762;48.128;11.376;2023-12-29T04:08:46;7.50;58.20
9448;DHT22;4762;48.128;11.376;2023-12-29T04:10:48;7.70;58.00
9448;DHT22;4762;48.128;11.376;2023-12-29T04:12:50;7.70;57.50
9448;DHT22;4762;48.128;11.376;2023-12-29T04:14:52;7.90;57.20
9448;DHT22;4762;48.128;11.376;2023-12-29T04:16:55;7.90;57.60
9448;DHT22;4762;48.128;11.376;2023-12-29T04:18:57;7.70;57.60
9448;DHT22;4762;48.128;11.376;2023-12-29T04:20:59;8.00;57.80
9448;DHT22;4762;48.128;11.376;2023-12-29T04:23:02;7.80;57.60
9448;DHT22;4762;48.128;11.376;2023-12-29T04:25:04;8.10;57.40
9448;DHT22;4762;48.128;11.376;2023-12-29T04:27:06;8.00;57.70
9448;DHT22;4762;48.128;11.376;2023-12-29T04:29:08;8.00;57.60
9448;DHT22;4762;48.128;11.376;2023-12-29T04:31:10;8.10;57.60
9448;DHT22;4762;48.128;11.376;2023-12-29T04:33:12;8.20;57.20
9448;DHT22;4762;48.128;11.376;2023-12-29T04:35:15;8.10;56.80
9448;DHT22;4762;48.128;11.376;2023-12-29T04:37:17;8.20;57.10
9448;DHT22;4762;48.128;11.376;2023-12-29T04:39:19;8.30;57.20
9448;DHT22;4762;48.128;11.376;2023-12-29T04:41:21;8.40;57.20
9448;DHT22;4762;48.128;11.376;2023-12-29T04:43:23;8.40;57.00
9448;DHT22;4762;48.128;11.376;2023-12-29T04:45:26;8.50;56.90
9448;DHT22;4762;48.128;11.376;2023-12-29T04:47:28;8.70;56.60
9448;DHT22;4762;48.128;11.376;2023-12-29T04:49:30;8.90;56.30
9448;DHT22;4762;48.128;11.376;2023-12-29T04:51:32;8.90;56.10
9448;DHT22;4762;48.128;11.376;2023-12-29T04:53:34;8.90;56.40
9448;DHT22;4762;48.128;11.376;2023-12-29T04:55:37;8.80;56.60
9448;DHT22;4762;48.128;11.376;2023-12-29T04:57:39;8.80;57.00
9448;DHT22;4762;48.128;11.376;2023-12-29T04:59:41;8.80;56.60
9448;DHT22;4762;48.128;11.376;2023-12-29T05:01:43;8.90;56.70
9448;DHT22;4762;48.128;11.376;2023-12-29T05:03:46;8.90;56.60
9448;DHT22;4762;48.128;11.376;2023-12-29T05:05:48;8.90;56.80
9448;DHT22;4762;48.128;11.376;2023-12-29T05:07:50;8.90;56.60
9448;DHT22;4762;48.128;11.376;2023-12-29T05:09:52;9.00;56.80
9448;DHT22;4762;48.128;11.376;2023-12-29T05:11:55;9.00;57.10
9448;DHT22;4762;48.128;11.376;2023-12-29T05:13:57;8.90;57.40
9448;DHT22;4762;48.128;11.376;2023-12-29T05:15:59;8.90;57.50
9448;DHT22;4762;48.128;11.376;2023-12-29T05:18:01;8.90;57.50
9448;DHT22;4762;48.128;11.376;2023-12-29T05:20:03;8.90;57.30
9448;DHT22;4762;48.128;11.376;2023-12-29T05:22:06;8.90;57.70
9448;DHT22;4762;48.128;11.376;2023-12-29T05:24:08;9.00;57.40
9448;DHT22;4762;48.128;11.376;2023-12-29T05:26:10;8.90;57.40
9448;DHT22;4762;48.128;11.376;2023-12-29T05:28:12;9.00;57.30
9448;DHT22;4762;48.128;11.376;2023-12-29T05:30:14;9.00;57.20
9448;DHT22;4762;48.128;11.376;2023-12-29T05:32:17;9.00;57.30
9448;DHT22;4762;48.128;11.376;2023-12-29T05:34:19;8.90;57.70
9448;DHT22;4762;48.128;11.376;2023-12-29T05:36:21;8.80;58.00
9448;DHT22;4762;48.128;11.376;2023-12-29T05:38:23;8.80;58.20
9448;DHT22;4762;48.128;11.376;2023-12-29T05:40:25;8.70;58.20
9448;DHT22;4762;48.128;11.376;2023-12-29T05:42:28;8.50;58.70
9448;DHT22;4762;48.128;11.376;2023-12-29T05:44:30;8.60;58.40
9448;DHT22;4762;48.128;11.376;2023-12-29T05:46:32;8.70;58.20
9448;DHT22;4762;48.128;11.376;2023-12-29T05:48:34;8.80;58.00
9448;DHT22;4762;48.128;11.376;2023-12-29T05:50:36;8.80;58.00
9448;DHT22;4762;48.128;11.376;2023-12-29T05:52:39;8.80;58.00
9448;DHT22;4762;48.128;11.376;2023-12-29T05:54:41;8.80;58.00
9448;DHT22;4762;48.128;11.376;2023-12-29T05:56:43;8.70;57.80
9448;DHT22;4762;48.128;11.376;2023-12-29T05:58:45;8.80;57.60
9448;DHT22;4762;48.128;11.376;2023-12-29T06:00:47;8.70;57.80
9448;DHT22;4762;48.128;11.376;2023-12-29T06:02:50;8.80;57.80
9448;DHT22;4762;48.128;11.376;2023-12-29T06:04:52;8.80;58.00
9448;DHT22;4762;48.128;11.376;2023-12-29T06:06:54;8.60;58.10
9448;DHT22;4762;48.128;11.376;2023-12-29T06:08:56;8.80;57.30
9448;DHT22;4762;48.128;11.376;2023-12-29T06:10:58;8.90;57.40
9448;DHT22;4762;48.128;11.376;2023-12-29T06:13:01;8.80;57.50
9448;DHT22;4762;48.128;11.376;2023-12-29T06:15:03;8.70;57.70
9448;DHT22;4762;48.128;11.376;2023-12-29T06:17:05;8.80;57.70
9448;DHT22;4762;48.128;11.376;2023-12-29T06:19:08;8.70;57.80
9448;DHT22;4762;48.128;11.376;2023-12-29T06:21:10;8.60;58.20
9448;DHT22;4762;48.128;11.376;2023-12-29T06:23:12;8.60;58.60
9448;DHT22;4762;48.128;11.376;2023-12-29T06:25:14;8.50;58.50
9448;DHT22;4762;48.128;11.376;2023-12-29T06:27:16;8.50;58.70
9448;DHT22;4762;48.128;11.376;2023-12-29T06:29:19;8.40;58.70
9448;DHT22;4762;48.128;11.376;2023-12-29T06:31:21;8.30;59.20
9448;DHT22;4762;48.128;11.376;2023-12-29T06:33:23;8.50;59.10
9448;DHT22;4762;48.128;11.376;2023-12-29T06:35:25;8.30;59.20
9448;DHT22;4762;48.128;11.376;2023-12-29T06:37:27;8.20;59.40
9448;DHT22;4762;48.128;11.376;2023-12-29T06:39:29;8.10;59.80
9448;DHT22;4762;48.128;11.376;2023-12-29T06:41:32;8.20;59.40
9448;DHT22;4762;48.128;11.376;2023-12-29T06:43:34;8.40;58.70
9448;DHT22;4762;48.128;11.376;2023-12-29T06:45:36;8.50;58.80
9448;DHT22;4762;48.128;11.376;2023-12-29T06:47:38;8.60;58.70
9448;DHT22;4762;48.128;11.376;2023-12-29T06:49:40;8.50;58.90
9448;DHT22;4762;48.128;11.376;2023-12-29T06:51:43;8.30;59.50
9448;DHT22;4762;48.128;11.376;2023-12-29T06:53:45;8.50;59.50
9448;DHT22;4762;48.128;11.376;2023-12-29T06:55:47;8.60;59.50
9448;DHT22;4762;48.128;11.376;2023-12-29T06:57:49;8.50;60.30
9448;DHT22;4762;48.128;11.376;2023-12-29T06:59:51;8.40;61.50
9448;DHT22;4762;48.128;11.376;2023-12-29T07:01:54;8.30;62.10
9448;DHT22;4762;48.128;11.376;2023-12-29T07:03:56;8.50;62.70
9448;DHT22;4762;48.128;11.376;2023-12-29T07:06:01;8.40;63.10
9448;DHT22;4762;48.128;11.376;2023-12-29T07:08:03;8.40;64.00
9448;DHT22;4762;48.128;11.376;2023-12-29T07:10:06;8.60;63.90
9448;DHT22;4762;48.128;11.376;2023-12-29T07:12:08;8.60;64.40
9448;DHT22;4762;48.128;11.376;2023-12-29T07:14:10;8.60;64.80
9448;DHT22;4762;48.128;11.376;2023-12-29T07:16:12;8.60;65.60
9448;DHT22;4762;48.128;11.376;2023-12-29T07:18:15;8.60;66.00
9448;DHT22;4762;48.128;11.376;2023-12-29T07:20:17;8.60;66.50
9448;DHT22;4762;48.128;11.376;2023-12-29T07:22:19;8.80;66.40
9448;DHT22;4762;48.128;11.376;2023-12-29T07:24:21;8.80;66.40
9448;DHT22;4762;48.128;11.376;2023-12-29T07:26:23;8.80;66.40
9448;DHT22;4762;48.128;11.376;2023-12-29T07:28:26;8.70;66.60
9448;DHT22;4762;48.128;11.376;2023-12-29T07:30:28;8.60;66.80
9448;DHT22;4762;48.128;11.376;2023-12-29T07:32:30;8.60;67.10
9448;DHT22;4762;48.128;11.376;2023-12-29T07:34:32;8.80;66.80
9448;DHT22;4762;48.128;11.376;2023-12-29T07:36:37;8.80;67.10
9448;DHT22;4762;48.128;11.376;2023-12-29T07:38:37;8.80;67.40
9448;DHT22;4762;48.128;11.376;2023-12-29T07:40:39;8.80;67.60
9448;DHT22;4762;48.128;11.376;2023-12-29T07:42:42;8.90;67.30
9448;DHT22;4762;48.128;11.376;2023-12-29T07:44:44;8.90;67.70
9448;DHT22;4762;48.128;11.376;2023-12-29T07:46:46;8.90;67.50
9448;DHT22;4762;48.128;11.376;2023-12-29T07:48:48;8.90;67.50
9448;DHT22;4762;48.128;11.376;2023-12-29T07:50:50;8.90;67.50
9448;DHT22;4762;48.128;11.376;2023-12-29T07:52:52;9.00;67.20
9448;DHT22;4762;48.128;11.376;2023-12-29T07:54:55;9.00;67.40
9448;DHT22;4762;48.128;11.376;2023-12-29T07:56:57;9.00;67.70
9448;DHT22;4762;48.128;11.376;2023-12-29T07:58:59;9.00;67.80
9448;DHT22;4762;48.128;11.376;2023-12-29T08:01:01;9.00;67.50
9448;DHT22;4762;48.128;11.376;2023-12-29T08:03:04;9.00;67.80
9448;DHT22;4762;48.128;11.376;2023-12-29T08:05:06;8.90;67.90
9448;DHT22;4762;48.128;11.376;2023-12-29T08:07:10;8.90;67.60
9448;DHT22;4762;48.128;11.376;2023-12-29T08:09:12;8.80;67.60
9448;DHT22;4762;48.128;11.376;2023-12-29T08:11:15;9.00;67.40
9448;DHT22;4762;48.128;11.376;2023-12-29T08:13:17;9.10;67.30
9448;DHT22;4762;48.128;11.376;2023-12-29T08:15:19;9.10;67.30
9448;DHT22;4762;48.128;11.376;2023-12-29T08:17:22;9.10;67.30
9448;DHT22;4762;48.128;11.376;2023-12-29T08:19:24;9.00;67.40
9448;DHT22;4762;48.128;11.376;2023-12-29T08:21:26;9.00;67.30
9448;DHT22;4762;48.128;11.376;2023-12-29T08:23:28;8.90;67.40
9448;DHT22;4762;48.128;11.376;2023-12-29T08:25:30;9.00;67.40
9448;DHT22;4762;48.128;11.376;2023-12-29T08:27:33;9.10;66.90
9448;DHT22;4762;48.128;11.376;2023-12-29T08:29:35;9.20;66.70
9448;DHT22;4762;48.128;11.376;2023-12-29T08:31:37;9.20;66.80
9448;DHT22;4762;48.128;11.376;2023-12-29T08:33:39;9.20;66.60
9448;DHT22;4762;48.128;11.376;2023-12-29T08:35:41;9.20;66.70
9448;DHT22;4762;48.128;11.376;2023-12-29T08:37:44;9.30;66.40
9448;DHT22;4762;48.128;11.376;2023-12-29T08:39:46;9.30;66.40
9448;DHT22;4762;48.128;11.376;2023-12-29T08:41:48;9.30;66.40
9448;DHT22;4762;48.128;11.376;2023-12-29T08:43:51;9.30;66.20
9448;DHT22;4762;48.128;11.376;2023-12-29T08:45:53;9.30;66.20
9448;DHT22;4762;48.128;11.376;2023-12-29T08:47:55;9.40;66.10
9448;DHT22;4762;48.128;11.376;2023-12-29T08:49:58;9.40;66.20
9448;DHT22;4762;48.128;11.376;2023-12-29T08:52:00;9.40;66.00
9448;DHT22;4762;48.128;11.376;2023-12-29T08:54:02;9.30;66.00
9448;DHT22;4762;48.128;11.376;2023-12-29T08:56:04;9.50;66.00
9448;DHT22;4762;48.128;11.376;2023-12-29T08:58:07;9.50;65.70
9448;DHT22;4762;48.128;11.376;2023-12-29T09:00:09;9.60;65.60
9448;DHT22;4762;48.128;11.376;2023-12-29T09:02:11;9.50;65.70
9448;DHT22;4762;48.128;11.376;2023-12-29T09:04:13;9.60;65.40
9448;DHT22;4762;48.128;11.376;2023-12-29T09:06:16;9.70;65.50
9448;DHT22;4762;48.128;11.376;2023-12-29T09:08:18;9.60;65.50
9448;DHT22;4762;48.128;11.376;2023-12-29T09:10:20;9.70;65.50
9448;DHT22;4762;48.128;11.376;2023-12-29T09:12:22;9.70;65.30
9448;DHT22;4762;48.128;11.376;2023-12-29T09:14:24;9.80;64.90
9448;DHT22;4762;48.128;11.376;2023-12-29T09:16:27;9.90;64.80
9448;DHT22;4762;48.128;11.376;2023-12-29T09:18:29;10.00;64.90
9448;DHT22;4762;48.128;11.376;2023-12-29T09:20:31;9.90;64.60
9448;DHT22;4762;48.128;11.376;2023-12-29T09:22:34;10.10;64.20
9448;DHT22;4762;48.128;11.376;2023-12-29T09:24:35;10.10;64.00
9448;DHT22;4762;48.128;11.376;2023-12-29T09:26:38;10.20;63.80
9448;DHT22;4762;48.128;11.376;2023-12-29T09:28:41;10.40;63.80
9448;DHT22;4762;48.128;11.376;2023-12-29T09:30:42;10.30;63.30
9448;DHT22;4762;48.128;11.376;2023-12-29T09:32:44;10.30;63.50
9448;DHT22;4762;48.128;11.376;2023-12-29T09:34:46;10.30;63.50
9448;DHT22;4762;48.128;11.376;2023-12-29T09:36:49;10.30;63.50
9448;DHT22;4762;48.128;11.376;2023-12-29T09:38:51;10.30;63.40
9448;DHT22;4762;48.128;11.376;2023-12-29T09:40:53;10.40;63.80
9448;DHT22;4762;48.128;11.376;2023-12-29T09:42:55;10.30;63.70
9448;DHT22;4762;48.128;11.376;2023-12-29T09:44:58;10.50;63.40
9448;DHT22;4762;48.128;11.376;2023-12-29T09:47:01;10.60;62.70
9448;DHT22;4762;48.128;11.376;2023-12-29T09:49:03;10.80;62.90
9448;DHT22;4762;48.128;11.376;2023-12-29T09:51:06;10.70;63.00
9448;DHT22;4762;48.128;11.376;2023-12-29T09:53:08;10.80;63.40
9448;DHT22;4762;48.128;11.376;2023-12-29T09:55:10;10.90;62.90
9448;DHT22;4762;48.128;11.376;2023-12-29T09:57:12;10.70;63.40
9448;DHT22;4762;48.128;11.376;2023-12-29T09:59:15;10.80;64.10
9448;DHT22;4762;48.128;11.376;2023-12-29T10:01:18;10.60;64.50
9448;DHT22;4762;48.128;11.376;2023-12-29T10:03:20;10.50;65.00
9448;DHT22;4762;48.128;11.376;2023-12-29T10:05:23;10.60;65.30
9448;DHT22;4762;48.128;11.376;2023-12-29T10:07:25;10.60;65.50
9448;DHT22;4762;48.128;11.376;2023-12-29T10:09:27;10.60;65.80
9448;DHT22;4762;48.128;11.376;2023-12-29T10:11:29;10.40;66.40
9448;DHT22;4762;48.128;11.376;2023-12-29T10:13:32;10.50;66.60
9448;DHT22;4762;48.128;11.376;2023-12-29T10:15:37;10.50;66.80
9448;DHT22;4762;48.128;11.376;2023-12-29T10:17:44;10.40;66.70
9448;DHT22;4762;48.128;11.376;2023-12-29T10:19:46;10.40;67.30
9448;DHT22;4762;48.128;11.376;2023-12-29T10:21:54;10.30;67.50
9448;DHT22;4762;48.128;11.376;2023-12-29T10:24:02;10.30;68.10
9448;DHT22;4762;48.128;11.376;2023-12-29T10:26:00;10.20;68.10
9448;DHT22;4762;48.128;11.376;2023-12-29T10:28:02;10.30;67.90
9448;DHT22;4762;48.128;11.376;2023-12-29T10:30:05;10.30;67.90
9448;DHT22;4762;48.128;11.376;2023-12-29T10:32:08;10.40;67.90
9448;DHT22;4762;48.128;11.376;2023-12-29T10:34:17;10.40;67.70
9448;DHT22;4762;48.128;11.376;2023-12-29T10:36:19;10.40;67.60
9448;DHT22;4762;48.128;11.376;2023-12-29T10:38:21;10.30;67.70
9448;DHT22;4762;48.128;11.376;2023-12-29T10:40:23;10.30;67.90
9448;DHT22;4762;48.128;11.376;2023-12-29T10:42:25;10.40;67.70
9448;DHT22;4762;48.128;11.376;2023-12-29T10:44:28;10.40;67.60
9448;DHT22;4762;48.128;11.376;2023-12-29T10:46:30;10.50;67.60
9448;DHT22;4762;48.128;11.376;2023-12-29T10:48:32;10.40;67.50
9448;DHT22;4762;48.128;11.376;2023-12-29T10:50:43;10.40;67.70
9448;DHT22;4762;48.128;11.376;2023-12-29T10:52:44;10.40;67.50
9448;DHT22;4762;48.128;11.376;2023-12-29T10:54:46;10.40;67.40
9448;DHT22;4762;48.128;11.376;2023-12-29T10:59:01;10.40;67.30
9448;DHT22;4762;48.128;11.376;2023-12-29T11:01:03;10.50;67.30
9448;DHT22;4762;48.128;11.376;2023-12-29T11:03:05;10.50;67.10
9448;DHT22;4762;48.128;11.376;2023-12-29T11:05:07;10.60;67.00
9448;DHT22;4762;48.128;11.376;2023-12-29T11:07:11;10.60;67.20
9448;DHT22;4762;48.128;11.376;2023-12-29T11:09:11;10.70;66.60
9448;DHT22;4762;48.128;11.376;2023-12-29T11:11:14;10.60;66.70
9448;DHT22;4762;48.128;11.376;2023-12-29T11:13:16;10.70;66.60
9448;DHT22;4762;48.128;11.376;2023-12-29T11:15:18;10.70;66.50
9448;DHT22;4762;48.128;11.376;2023-12-29T11:17:20;10.60;66.70
9448;DHT22;4762;48.128;11.376;2023-12-29T11:19:23;10.90;66.40
9448;DHT22;4762;48.128;11.376;2023-12-29T11:21:26;11.00;65.80
9448;DHT22;4762;48.128;11.376;2023-12-29T11:23:27;11.00;65.90
9448;DHT22;4762;48.128;11.376;2023-12-29T11:25:29;10.90;65.90
9448;DHT22;4762;48.128;11.376;2023-12-29T11:27:31;10.90;65.80
9448;DHT22;4762;48.128;11.376;2023-12-29T11:29:34;10.80;66.10
9448;DHT22;4762;48.128;11.376;2023-12-29T11:31:36;10.60;66.40
9448;DHT22;4762;48.128;11.376;2023-12-29T11:33:40;10.70;66.40
9448;DHT22;4762;48.128;11.376;2023-12-29T11:35:50;10.80;66.20
9448;DHT22;4762;48.128;11.376;2023-12-29T11:40:25;11.30;64.80
9448;DHT22;4762;48.128;11.376;2023-12-29T11:42:27;11.10;65.10
9448;DHT22;4762;48.128;11.376;2023-12-29T11:44:28;11.10;65.50
9448;DHT22;4762;48.128;11.376;2023-12-29T11:46:43;11.30;64.70
9448;DHT22;4762;48.128;11.376;2023-12-29T11:48:54;11.20;64.80
9448;DHT22;4762;48.128;11.376;2023-12-29T11:50:55;11.20;64.50
9448;DHT22;4762;48.128;11.376;2023-12-29T11:52:57;11.40;64.40
9448;DHT22;4762;48.128;11.376;2023-12-29T11:55:07;11.50;63.80
9448;DHT22;4762;48.128;11.376;2023-12-29T11:57:08;11.30;64.10
9448;DHT22;4762;48.128;11.376;2023-12-29T11:59:14;11.60;63.60
9448;DHT22;4762;48.128;11.376;2023-12-29T12:01:36;12.10;62.50
9448;DHT22;4762;48.128;11.376;2023-12-29T12:03:38;11.90;62.20
9448;DHT22;4762;48.128;11.376;2023-12-29T12:05:45;11.50;63.60
9448;DHT22;4762;48.128;11.376;2023-12-29T12:08:01;11.60;63.30
9448;DHT22;4762;48.128;11.376;2023-12-29T12:16:48;11.40;63.90
9448;DHT22;4762;48.128;11.376;2023-12-29T12:18:50;11.40;63.60
9448;DHT22;4762;48.128;11.376;2023-12-29T12:20:52;11.30;63.60
9448;DHT22;4762;48.128;11.376;2023-12-29T12:22:58;11.40;62.90
9448;DHT22;4762;48.128;11.376;2023-12-29T12:24:59;11.50;62.80
9448;DHT22;4762;48.128;11.376;2023-12-29T12:27:01;11.30;62.90
9448;DHT22;4762;48.128;11.376;2023-12-29T12:29:04;11.30;62.90
9448;DHT22;4762;48.128;11.376;2023-12-29T12:31:06;11.30;63.40
9448;DHT22;4762;48.128;11.376;2023-12-29T12:33:08;11.30;63.30
9448;DHT22;4762;48.128;11.376;2023-12-29T12:35:14;11.30;63.20
9448;DHT22;4762;48.128;11.376;2023-12-29T12:37:21;11.30;63.00
9448;DHT22;4762;48.128;11.376;2023-12-29T12:39:23;11.40;62.50
9448;DHT22;4762;48.128;11.376;2023-12-29T12:41:25;11.40;62.50
9448;DHT22;4762;48.128;11.376;2023-12-29T12:43:27;11.30;62.90
9448;DHT22;4762;48.128;11.376;2023-12-29T12:45:33;11.40;62.60
9448;DHT22;4762;48.128;11.376;2023-12-29T12:47:33;11.30;62.00
9448;DHT22;4762;48.128;11.376;2023-12-29T12:49:34;11.40;62.20
9448;DHT22;4762;48.128;11.376;2023-12-29T12:51:36;11.40;62.40
9448;DHT22;4762;48.128;11.376;2023-12-29T12:53:40;11.40;61.70
9448;DHT22;4762;48.128;11.376;2023-12-29T12:55:41;11.40;61.70
9448;DHT22;4762;48.128;11.376;2023-12-29T12:57:44;11.30;61.70
9448;DHT22;4762;48.128;11.376;2023-12-29T12:59:46;11.30;61.80
9448;DHT22;4762;48.128;11.376;2023-12-29T13:01:48;11.20;61.80
9448;DHT22;4762;48.128;11.376;2023-12-29T13:03:50;11.20;61.80
9448;DHT22;4762;48.128;11.376;2023-12-29T13:05:53;11.30;61.90
9448;DHT22;4762;48.128;11.376;2023-12-29T13:07:55;11.20;61.90
9448;DHT22;4762;48.128;11.376;2023-12-29T13:09:57;11.30;62.00
9448;DHT22;4762;48.128;11.376;2023-12-29T13:12:07;11.30;61.90
9448;DHT22;4762;48.128;11.376;2023-12-29T13:14:18;11.20;62.50
9448;DHT22;4762;48.128;11.376;2023-12-29T13:16:11;11.10;62.00
9448;DHT22;4762;48.128;11.376;2023-12-29T13:18:14;11.00;62.30
9448;DHT22;4762;48.128;11.376;2023-12-29T13:20:16;11.10;62.20
9448;DHT22;4762;48.128;11.376;2023-12-29T13:22:18;11.10;62.00
9448;DHT22;4762;48.128;11.376;2023-12-29T13:24:22;11.10;62.40
9448;DHT22;4762;48.128;11.376;2023-12-29T13:26:24;11.00;62.90
9448;DHT22;4762;48.128;11.376;2023-12-29T13:28:26;10.90;62.90